Time;durP1;ratioP1;P1;durP2;ratioP2;P2;SDS_P1;SDS_P2;PMS_P1;PMS_P2;Temp;Humidity;BMP_temperature;BMP_pressure;BME280_temperature;BME280_humidity;BME280_pressure;Samples;Min_cycle;Max_cycle;Signal;HPM_P1;HPM_P2
2021/02/07 00:00:47;;;;;;;5;2.3;;;;;;;5.85;73.48926;920.4995;;;;
2021/02/07 00:03:16;;;;;;;13.7;3.4;;;;;;;6.07;71.49414;920.4221;;;;
2021/02/07 00:05:48;;;;;;;8.1;2.8;;;;;;;6.16;71.8916;920.3918;;;;
2021/02/07 00:08:15;;;;;;;12.4;3.9;;;;;;;6.15;71.67676;920.4882;;;;
2021/02/07 00:10:45;;;;;;;17.5;4.2;;;;;;;6.28;69.96777;920.552;;;;
2021/02/07 00:13:12;;;;;;;15.7;3.7;;;;;;;6.41;69.86426;920.449;;;;
2021/02/07 00:15:42;;;;;;;13.9;3.7;;;;;;;6.38;69.47559;920.3494;;;;
2021/02/07 00:18:15;;;;;;;9.5;3.6;;;;;;;6.96;64.89453;920.4224;;;;
2021/02/07 00:20:52;;;;;;;12.2;3.3;;;;;;;7.18;63.94141;920.3436;;;;
2021/02/07 00:23:29;;;;;;;20.3;3.2;;;;;;;7.38;64.71875;920.4928;;;;
2021/02/07 00:25:56;;;;;;;9.1;3.5;;;;;;;7.44;64.27344;920.4722;;;;
2021/02/07 00:28:25;;;;;;;8.3;3;;;;;;;7.34;64.18066;920.4852;;;;
2021/02/07 00:31:02;;;;;;;15;3.4;;;;;;;7.41;64.43945;920.2847;;;;
2021/02/07 00:33:27;;;;;;;12.3;2.9;;;;;;;7.36;64.30859;920.3442;;;;
2021/02/07 00:35:56;;;;;;;16.6;3.1;;;;;;;7.45;62.75781;920.3834;;;;
2021/02/07 00:38:21;;;;;;;19.9;3.8;;;;;;;7.48;63.57617;920.2644;;;;
2021/02/07 00:40:47;;;;;;;8.8;3;;;;;;;7.58;62.65137;920.1051;;;;
2021/02/07 00:43:14;;;;;;;6.5;3.1;;;;;;;7.49;63.12598;920.212;;;;
2021/02/07 00:45:39;;;;;;;11.5;4.1;;;;;;;7.47;63.25879;920.1995;;;;
2021/02/07 00:48:06;;;;;;;20;3.9;;;;;;;7.63;62.63477;920.2388;;;;
2021/02/07 00:50:31;;;;;;;8.2;2.8;;;;;;;7.67;63.20898;920.0452;;;;
2021/02/07 00:52:59;;;;;;;13.8;2.9;;;;;;;7.6;62.84766;920.3044;;;;
2021/02/07 00:55:24;;;;;;;7;2.4;;;;;;;7.63;63.37402;920.3663;;;;
2021/02/07 00:57:54;;;;;;;10.4;2.9;;;;;;;7.69;63.29199;920.4711;;;;
2021/02/07 01:00:19;;;;;;;15.4;4;;;;;;;7.31;64.43652;920.4387;;;;
2021/02/07 01:02:48;;;;;;;13.7;3.4;;;;;;;7.31;65.03711;920.3596;;;;
2021/02/07 01:05:13;;;;;;;10.7;2.8;;;;;;;7.27;64.70313;920.3939;;;;
2021/02/07 01:07:40;;;;;;;8.3;3.3;;;;;;;7.39;63.8252;920.3384;;;;
2021/02/07 01:10:05;;;;;;;6.6;3.2;;;;;;;7.39;65.52539;920.3495;;;;
2021/02/07 01:12:30;;;;;;;17.7;3.3;;;;;;;7.22;66.59766;920.3002;;;;
2021/02/07 01:14:57;;;;;;;9.4;3.7;;;;;;;7.01;66.96191;920.3195;;;;
2021/02/07 01:17:28;;;;;;;19.6;3.7;;;;;;;6.84;65.74707;920.3574;;;;
2021/02/07 01:20:04;;;;;;;10.5;3.5;;;;;;;6.84;66.74316;920.5092;;;;
2021/02/07 01:22:31;;;;;;;15;2.9;;;;;;;6.57;67.35645;920.4713;;;;
2021/02/07 01:25:00;;;;;;;9.2;2.9;;;;;;;6.85;66.34766;920.3511;;;;
2021/02/07 01:27:25;;;;;;;10.9;3.9;;;;;;;6.89;66.43457;920.3184;;;;
2021/02/07 01:29:54;;;;;;;11.1;3.5;;;;;;;6.7;66.93555;920.3223;;;;
2021/02/07 01:32:25;;;;;;;12.2;3.8;;;;;;;6.48;67.5459;920.2891;;;;
2021/02/07 01:34:56;;;;;;;22;4.4;;;;;;;6.11;69.68066;920.2813;;;;
2021/02/07 01:37:23;;;;;;;9.1;3.9;;;;;;;6.33;69.06152;920.1671;;;;
2021/02/07 01:39:49;;;;;;;11.3;3.4;;;;;;;6.29;69.3252;920.1766;;;;
2021/02/07 01:42:15;;;;;;;18.6;4.2;;;;;;;6.31;68.35547;920.1347;;;;
2021/02/07 01:44:46;;;;;;;16.6;3.5;;;;;;;6.3;69.10059;920.0533;;;;
2021/02/07 01:47:15;;;;;;;23.8;4;;;;;;;6.04;70.20117;920.088;;;;
2021/02/07 01:49:45;;;;;;;15.2;3.1;;;;;;;5.82;71.04492;920.0494;;;;
2021/02/07 01:52:11;;;;;;;18.7;4.1;;;;;;;5.86;70.89258;920.005;;;;
2021/02/07 01:54:39;;;;;;;12.2;3;;;;;;;5.99;70.57617;920.0539;;;;
2021/02/07 01:57:04;;;;;;;10.6;3.9;;;;;;;5.84;70.67676;920.0935;;;;
2021/02/07 01:59:34;;;;;;;9;2.3;;;;;;;5.96;70.57031;919.8535;;;;
2021/02/07 02:01:59;;;;;;;27.7;4;;;;;;;5.97;70.85547;919.8147;;;;
2021/02/07 02:04:27;;;;;;;9.9;3.4;;;;;;;5.73;71.27832;919.863;;;;
2021/02/07 02:06:53;;;;;;;18.6;3.6;;;;;;;5.7;71.49805;919.8654;;;;
2021/02/07 02:09:23;;;;;;;15;5;;;;;;;5.71;72.02051;919.8614;;;;
2021/02/07 02:11:48;;;;;;;12.7;3.4;;;;;;;5.51;72.84473;919.875;;;;
2021/02/07 02:14:15;;;;;;;10.3;2.5;;;;;;;5.7;72.29004;919.9056;;;;
2021/02/07 02:16:40;;;;;;;15.8;3.9;;;;;;;5.86;71.9668;919.8628;;;;
2021/02/07 02:19:07;;;;;;;8.8;3.6;;;;;;;5.79;72.04492;919.7917;;;;
2021/02/07 02:21:34;;;;;;;10.5;3.6;;;;;;;5.81;71.69824;919.7722;;;;
2021/02/07 02:23:59;;;;;;;11.1;3;;;;;;;5.75;72.21875;919.7603;;;;
2021/02/07 02:26:24;;;;;;;14.4;3.8;;;;;;;5.71;72.47168;919.6924;;;;
2021/02/07 02:28:49;;;;;;;8.1;2.8;;;;;;;5.63;74.08398;919.9381;;;;
2021/02/07 02:31:15;;;;;;;9.9;3.2;;;;;;;5.67;72.9834;919.8474;;;;
2021/02/07 02:33:40;;;;;;;10.8;3;;;;;;;5.41;74.76855;919.7559;;;;
2021/02/07 02:36:05;;;;;;;10.4;3.9;;;;;;;5.22;79.50586;919.8861;;;;
2021/02/07 02:38:31;;;;;;;6;2.7;;;;;;;5.36;79.76758;919.8528;;;;
2021/02/07 02:40:57;;;;;;;6.2;2.9;;;;;;;5.44;79.97461;919.7851;;;;
2021/02/07 02:43:25;;;;;;;4.7;2.4;;;;;;;5.4;80.53027;919.8702;;;;
2021/02/07 02:45:50;;;;;;;5;2.9;;;;;;;5.43;80.67383;919.7844;;;;
2021/02/07 02:48:16;;;;;;;7.2;3.7;;;;;;;5.43;80.97559;919.9256;;;;
2021/02/07 02:50:43;;;;;;;11;4.1;;;;;;;5.44;80.93359;919.8791;;;;
2021/02/07 02:53:09;;;;;;;7;3.4;;;;;;;5.41;81.60547;919.9106;;;;
2021/02/07 02:55:33;;;;;;;7.4;3.8;;;;;;;5.28;82.32422;919.9294;;;;
2021/02/07 02:57:59;;;;;;;8.1;3.2;;;;;;;5.33;82.22168;919.9056;;;;
2021/02/07 03:00:25;;;;;;;7.4;3.9;;;;;;;5.41;81.97754;919.8444;;;;
2021/02/07 03:02:50;;;;;;;7.6;3.9;;;;;;;5.45;81.95117;919.8198;;;;
2021/02/07 03:05:17;;;;;;;5.9;3.4;;;;;;;5.29;82.47266;919.8474;;;;
2021/02/07 03:07:42;;;;;;;6.1;3.4;;;;;;;5.25;82.96191;919.778;;;;
2021/02/07 03:10:17;;;;;;;7;3.6;;;;;;;5.21;83.17871;919.9602;;;;
2021/02/07 03:12:42;;;;;;;5.6;3.4;;;;;;;;;;;;;
2021/02/07 03:15:14;;;;;;;5.3;3;;;;;;;;;;;;;
2021/02/07 03:17:43;;;;;;;9.4;4;;;;;;;;;;;;;
2021/02/07 03:20:08;;;;;;;6.8;4;;;;;;;;;;;;;
2021/02/07 03:22:33;;;;;;;7.6;3.7;;;;;;;;;;;;;
2021/02/07 03:24:58;;;;;;;7.3;4;;;;;;;;;;;;;
2021/02/07 03:27:23;;;;;;;6.4;3.5;;;;;;;;;;;;;
2021/02/07 03:29:49;;;;;;;10.5;3.7;;;;;;;;;;;;;
2021/02/07 03:32:14;;;;;;;7.3;4;;;;;;;;;;;;;
2021/02/07 03:34:39;;;;;;;8.7;4;;;;;;;;;;;;;
2021/02/07 03:37:05;;;;;;;7.1;4.3;;;;;;;;;;;;;
2021/02/07 03:39:30;;;;;;;16.7;3.9;;;;;;;;;;;;;
2021/02/07 03:41:55;;;;;;;9;4.9;;;;;;;;;;;;;
2021/02/07 03:44:20;;;;;;;8.1;4.5;;;;;;;;;;;;;
2021/02/07 03:46:46;;;;;;;7.3;4.1;;;;;;;;;;;;;
2021/02/07 03:49:11;;;;;;;6.9;4;;;;;;;;;;;;;
2021/02/07 03:51:38;;;;;;;7.5;4.4;;;;;;;;;;;;;
2021/02/07 03:54:03;;;;;;;9;3.7;;;;;;;;;;;;;
2021/02/07 03:56:30;;;;;;;6.4;3.7;;;;;;;;;;;;;
2021/02/07 03:58:55;;;;;;;7.7;4.4;;;;;;;;;;;;;
2021/02/07 04:02:30;;;;;;;10.7;3.9;;;;;;;4.22;87.20605;919.6542;;;;
2021/02/07 04:05:01;;;;;;;6.1;4.2;;;;;;;4;89.25098;919.7726;;;;
2021/02/07 04:07:26;;;;;;;7.1;4.1;;;;;;;4.01;89.51367;919.7092;;;;
2021/02/07 04:09:56;;;;;;;8.1;4.9;;;;;;;4.03;89.2832;919.6794;;;;
2021/02/07 04:12:22;;;;;;;8.7;4.1;;;;;;;4.16;88.7002;919.764;;;;
2021/02/07 04:14:51;;;;;;;6.4;3.8;;;;;;;4.38;87.78906;919.6152;;;;
2021/02/07 04:17:25;;;;;;;8.5;4.6;;;;;;;4.32;87.28223;919.6891;;;;
2021/02/07 04:19:48;;;;;;;6.6;3.4;;;;;;;4.18;88.29883;919.6412;;;;
2021/02/07 04:22:20;;;;;;;10.2;4.5;;;;;;;3.71;90.57324;919.5036;;;;
2021/02/07 04:24:48;;;;;;;10.4;4.7;;;;;;;3.63;91.08398;919.3986;;;;
2021/02/07 04:27:20;;;;;;;6.4;3.8;;;;;;;3.87;90.40332;919.2738;;;;
2021/02/07 04:29:49;;;;;;;6.8;3.5;;;;;;;4.07;89.01855;919.3692;;;;
2021/02/07 04:32:17;;;;;;;7.7;4.3;;;;;;;4.06;88.78125;919.3322;;;;
2021/02/07 04:34:42;;;;;;;9.1;4.6;;;;;;;4.18;88.18848;919.2789;;;;
2021/02/07 04:37:07;;;;;;;7.5;4.1;;;;;;;4.25;87.50391;919.4125;;;;
2021/02/07 04:39:32;;;;;;;16.3;3.6;;;;;;;3.98;87.36035;919.5041;;;;
2021/02/07 04:42:01;;;;;;;5.9;3.9;;;;;;;3.96;88.2207;919.3717;;;;
2021/02/07 04:44:26;;;;;;;5.2;3.4;;;;;;;4.15;86.95313;919.3946;;;;
2021/02/07 04:46:54;;;;;;;10.7;4.8;;;;;;;4.21;86.69727;919.5329;;;;
2021/02/07 04:49:20;;;;;;;8.7;4.7;;;;;;;4.11;86.77832;919.5583;;;;
2021/02/07 04:51:50;;;;;;;9.1;4.1;;;;;;;4.02;87.10742;919.7179;;;;
2021/02/07 04:54:15;;;;;;;6.8;4.3;;;;;;;4;87.40918;919.7703;;;;
2021/02/07 04:56:41;;;;;;;9.7;4.4;;;;;;;4.16;86.82129;919.6735;;;;
2021/02/07 04:59:09;;;;;;;8.7;3.7;;;;;;;4.01;87.19727;919.7502;;;;
2021/02/07 05:04:02;;;;;;;7.7;3.6;;;;;;;4.34;86.31836;920.009;;;;
2021/02/07 05:06:28;;;;;;;5.5;3.6;;;;;;;4.45;85.6084;919.9402;;;;
2021/02/07 05:08:53;;;;;;;6.2;3.7;;;;;;;4.51;85.23633;919.7551;;;;
2021/02/07 05:11:28;;;;;;;4.6;3.2;;;;;;;4.64;84.76953;919.6429;;;;
2021/02/07 05:13:57;;;;;;;4.6;3.2;;;;;;;4.71;84.69434;919.5003;;;;
2021/02/07 05:16:37;;;;;;;6.5;3.6;;;;;;;4.36;85.17578;919.2827;;;;
2021/02/07 05:19:08;;;;;;;8.7;3.8;;;;;;;4.21;86.26855;919.0706;;;;
2021/02/07 05:21:40;;;;;;;6.4;3.7;;;;;;;4.34;85.72168;918.8699;;;;
2021/02/07 05:24:16;;;;;;;7.4;3.6;;;;;;;4.07;86.69043;918.8306;;;;
2021/02/07 05:26:50;;;;;;;9.8;4;;;;;;;4.04;87.29297;918.7802;;;;
2021/02/07 05:29:15;;;;;;;10;4.1;;;;;;;4.26;86.49512;918.8406;;;;
2021/02/07 05:31:51;;;;;;;8.5;4.4;;;;;;;4.22;86.65234;918.8367;;;;
2021/02/07 05:34:27;;;;;;;8.9;4.4;;;;;;;3.99;87.74219;918.6805;;;;
2021/02/07 05:36:57;;;;;;;12;4.8;;;;;;;3.53;91.05078;918.796;;;;
2021/02/07 05:39:25;;;;;;;12.4;4.5;;;;;;;3.56;90.75391;918.9903;;;;
2021/02/07 05:41:51;;;;;;;7.4;4.2;;;;;;;3.59;90.90527;919.0361;;;;
2021/02/07 05:44:21;;;;;;;11.8;5;;;;;;;3.37;92.27539;918.9138;;;;
2021/02/07 05:46:50;;;;;;;13.9;5.4;;;;;;;3.6;91.60742;918.7226;;;;
2021/02/07 05:49:21;;;;;;;12.4;4.9;;;;;;;3.86;90.43652;918.6692;;;;
2021/02/07 05:51:52;;;;;;;14.6;4.8;;;;;;;3.55;91.13379;918.4963;;;;
2021/02/07 05:54:23;;;;;;;6.9;3.8;;;;;;;3.58;91.24219;918.4169;;;;
2021/02/07 05:56:51;;;;;;;12.6;4.3;;;;;;;3.57;91.02734;918.4138;;;;
2021/02/07 05:59:16;;;;;;;7.2;3.8;;;;;;;3.98;89.88867;918.4514;;;;
2021/02/07 06:01:41;;;;;;;4.4;3.5;;;;;;;3.83;89.58789;918.3315;;;;
2021/02/07 06:04:06;;;;;;;7.1;4;;;;;;;3.88;89.38574;918.338;;;;
2021/02/07 06:06:31;;;;;;;8.4;4.2;;;;;;;4.13;88.29199;918.2086;;;;
2021/02/07 06:08:56;;;;;;;12;4.5;;;;;;;3.83;88.76758;918.2213;;;;
2021/02/07 06:11:28;;;;;;;8.6;4.3;;;;;;;3.72;90.04688;918.3223;;;;
2021/02/07 06:13:59;;;;;;;8.9;3.6;;;;;;;3.91;88.93066;918.4088;;;;
2021/02/07 06:16:31;;;;;;;4.9;3.2;;;;;;;4.18;88.05371;918.2709;;;;
2021/02/07 06:18:57;;;;;;;7.8;4.2;;;;;;;4.2;87.43848;918.2795;;;;
2021/02/07 06:21:21;;;;;;;7;3.7;;;;;;;4.31;87.18848;918.2916;;;;
2021/02/07 06:23:50;;;;;;;4.4;2.7;;;;;;;4.43;86.71973;918.3683;;;;
2021/02/07 06:26:21;;;;;;;8.5;3.7;;;;;;;4.25;87.05371;918.4122;;;;
2021/02/07 06:28:47;;;;;;;6.1;3.5;;;;;;;4.25;86.75;918.3948;;;;
2021/02/07 06:31:12;;;;;;;8.4;4.2;;;;;;;4.21;86.29297;918.3704;;;;
2021/02/07 06:33:37;;;;;;;6;3.6;;;;;;;3.92;87.88672;918.3364;;;;
2021/02/07 06:36:07;;;;;;;10.1;3.6;;;;;;;4.02;87.83984;918.3928;;;;
2021/02/07 06:38:37;;;;;;;12.1;3.4;;;;;;;4.15;86.93262;918.4244;;;;
2021/02/07 06:41:04;;;;;;;9.5;3;;;;;;;4.17;87.39746;918.2874;;;;
2021/02/07 06:43:29;;;;;;;8.7;3.8;;;;;;;4.36;86.50391;918.0837;;;;
2021/02/07 06:45:58;;;;;;;6.5;3.6;;;;;;;4.57;85.73535;918.202;;;;
2021/02/07 06:48:23;;;;;;;5.3;3.7;;;;;;;4.74;84.91406;918.2919;;;;
2021/02/07 06:50:52;;;;;;;8.8;3.9;;;;;;;4.71;83.88184;918.0658;;;;
2021/02/07 06:53:17;;;;;;;5.7;3.3;;;;;;;4.63;84.25977;918.0257;;;;
2021/02/07 06:55:43;;;;;;;7.5;4;;;;;;;4.33;85.58301;918.1058;;;;
2021/02/07 06:58:07;;;;;;;7.9;3.2;;;;;;;4.46;85.39844;918.0508;;;;
2021/02/07 07:00:32;;;;;;;18.3;3.5;;;;;;;4.49;85.05469;917.9657;;;;
2021/02/07 07:02:59;;;;;;;7.7;3.6;;;;;;;4.73;84.44824;917.8695;;;;
2021/02/07 07:05:31;;;;;;;6.5;3.1;;;;;;;4.86;84.76758;917.6794;;;;
2021/02/07 07:07:58;;;;;;;6.8;3.2;;;;;;;5.03;84.05762;917.5452;;;;
2021/02/07 07:10:23;;;;;;;4.7;2.7;;;;;;;5.15;83.24805;917.465;;;;
2021/02/07 07:12:49;;;;;;;5.8;3.4;;;;;;;5.2;82.7373;917.5208;;;;
2021/02/07 07:15:15;;;;;;;8.1;4.3;;;;;;;5.27;82.19824;917.5358;;;;
2021/02/07 07:17:40;;;;;;;14.4;3.8;;;;;;;5.41;81.59277;917.4904;;;;
2021/02/07 07:20:15;;;;;;;5.4;2.9;;;;;;;5.63;80.5293;917.5059;;;;
2021/02/07 07:22:43;;;;;;;4.8;2.9;;;;;;;5.61;79.78223;917.4106;;;;
2021/02/07 07:25:13;;;;;;;4.6;2.5;;;;;;;5.66;79.99219;917.37;;;;
2021/02/07 07:27:41;;;;;;;8.2;3.5;;;;;;;5.62;80.77637;917.3111;;;;
2021/02/07 07:30:06;;;;;;;14.7;4.3;;;;;;;5.76;80.84668;917.3717;;;;
2021/02/07 07:32:31;;;;;;;9;4.8;;;;;;;5.67;80.07324;917.4386;;;;
2021/02/07 07:34:57;;;;;;;6.3;3.6;;;;;;;5.65;79.70898;917.4001;;;;
2021/02/07 07:37:22;;;;;;;11.9;4;;;;;;;5.67;80.32129;917.5255;;;;
2021/02/07 07:39:48;;;;;;;18.3;4.1;;;;;;;6.06;79.16309;917.4716;;;;
2021/02/07 07:42:12;;;;;;;8.1;3.8;;;;;;;6.38;78.39746;917.4487;;;;
2021/02/07 07:44:40;;;;;;;8.9;2.8;;;;;;;6.61;76.94727;917.4012;;;;
2021/02/07 07:47:10;;;;;;;4.4;2.9;;;;;;;6.77;76.0918;917.5941;;;;
2021/02/07 07:49:36;;;;;;;5.7;2.9;;;;;;;7.07;75.83887;917.4642;;;;
2021/02/07 07:52:08;;;;;;;14.3;4.4;;;;;;;7.71;74.44336;917.4255;;;;
2021/02/07 07:54:34;;;;;;;6.8;3.5;;;;;;;8.62;70.35059;917.4512;;;;
2021/02/07 07:56:59;;;;;;;8;3.7;;;;;;;9.2;67.66895;917.5967;;;;
2021/02/07 07:59:27;;;;;;;9.8;3.9;;;;;;;9.49;65.69727;917.6672;;;;
2021/02/07 08:01:53;;;;;;;6.1;3.3;;;;;;;8.87;67.44629;917.693;;;;
2021/02/07 08:04:19;;;;;;;3.3;2.6;;;;;;;10.15;65.04395;917.6152;;;;
2021/02/07 08:06:44;;;;;;;7;3.5;;;;;;;11.14;61.34082;917.5067;;;;
2021/02/07 08:09:09;;;;;;;22.6;4.5;;;;;;;11.99;59.01074;917.5073;;;;
2021/02/07 08:11:36;;;;;;;7.7;3.7;;;;;;;13.08;55.09277;917.5161;;;;
2021/02/07 08:14:01;;;;;;;11.6;4;;;;;;;14.2;51.51465;917.3865;;;;
2021/02/07 08:16:29;;;;;;;5.7;3.3;;;;;;;15.08;47.88086;917.3428;;;;
2021/02/07 08:18:54;;;;;;;4.2;2.3;;;;;;;15.71;46.04297;917.2522;;;;
2021/02/07 08:21:21;;;;;;;7.6;4.2;;;;;;;15.2;47.02832;917.1959;;;;
2021/02/07 08:23:46;;;;;;;7.3;3.8;;;;;;;14.47;48.55176;917.2416;;;;
2021/02/07 08:26:12;;;;;;;18.5;2.2;;;;;;;13.77;49.49707;917.2764;;;;
2021/02/07 08:28:37;;;;;;;8.7;2;;;;;;;13.38;51.36133;917.2522;;;;
2021/02/07 08:31:05;;;;;;;4.4;2.1;;;;;;;13.03;52.68652;917.2645;;;;
2021/02/07 08:33:30;;;;;;;4.2;2;;;;;;;12.53;54.5752;917.2282;;;;
2021/02/07 08:35:58;;;;;;;4.6;2.2;;;;;;;12.17;55.51563;917.2136;;;;
2021/02/07 08:38:23;;;;;;;6.6;2.1;;;;;;;11.77;57.0332;917.1704;;;;
2021/02/07 08:40:48;;;;;;;6.3;3.4;;;;;;;11.59;57.18164;917.1481;;;;
2021/02/07 08:43:13;;;;;;;10.8;2.9;;;;;;;11.52;57.8252;917.0817;;;;
2021/02/07 08:45:41;;;;;;;6.8;3.2;;;;;;;11.38;57.65625;917.1181;;;;
2021/02/07 08:48:06;;;;;;;8.4;3.5;;;;;;;11.19;58.70703;917.0385;;;;
2021/02/07 08:50:31;;;;;;;8.4;4.1;;;;;;;11.23;58.81445;916.9492;;;;
2021/02/07 08:52:56;;;;;;;8;3.2;;;;;;;11.32;59.0791;916.8192;;;;
2021/02/07 08:55:23;;;;;;;20.2;8.9;;;;;;;11.84;57.95801;916.9363;;;;
2021/02/07 08:57:48;;;;;;;19;8.4;;;;;;;12.29;57.34277;916.9077;;;;
2021/02/07 09:00:18;;;;;;;15.7;7;;;;;;;12.45;57.43164;916.9523;;;;
2021/02/07 09:02:49;;;;;;;9.1;3.8;;;;;;;12.6;55.53516;916.9786;;;;
2021/02/07 09:05:19;;;;;;;9.7;4.6;;;;;;;12.88;55.87109;916.9706;;;;
2021/02/07 09:07:44;;;;;;;12.4;3.3;;;;;;;13.27;55.12793;916.9422;;;;
2021/02/07 09:10:14;;;;;;;16.9;3.7;;;;;;;13.63;53.25391;916.9247;;;;
2021/02/07 09:12:44;;;;;;;6.2;3.4;;;;;;;14.23;52.98047;916.8375;;;;
2021/02/07 09:15:09;;;;;;;13.6;4.3;;;;;;;14.59;52.11426;916.7997;;;;
2021/02/07 09:17:34;;;;;;;19.4;4.5;;;;;;;14.95;50.33496;916.7205;;;;
2021/02/07 09:20:01;;;;;;;11.1;3.2;;;;;;;15.05;49.34375;916.7501;;;;
2021/02/07 09:22:26;;;;;;;3.1;2;;;;;;;15.3;47.69629;916.6606;;;;
2021/02/07 09:24:54;;;;;;;5;2.6;;;;;;;15.35;48.58008;916.6488;;;;
2021/02/07 09:27:18;;;;;;;8.3;2.9;;;;;;;15.51;48.36816;916.7797;;;;
2021/02/07 09:29:46;;;;;;;4.3;2.5;;;;;;;13.98;49.63672;916.8431;;;;
2021/02/07 09:32:11;;;;;;;4.4;2.6;;;;;;;12.93;52.68457;916.9449;;;;
2021/02/07 09:34:39;;;;;;;2.6;1.6;;;;;;;12.77;53.33203;916.9908;;;;
2021/02/07 09:37:04;;;;;;;5.8;1.8;;;;;;;12.43;54.78027;916.8939;;;;
2021/02/07 09:39:31;;;;;;;4.2;1.7;;;;;;;12.13;54.87988;916.7841;;;;
2021/02/07 09:41:56;;;;;;;2.6;2;;;;;;;11.26;57.7793;916.8822;;;;
2021/02/07 09:44:27;;;;;;;2.4;1.6;;;;;;;10.54;59.61133;916.9059;;;;
2021/02/07 09:46:56;;;;;;;2.3;1.8;;;;;;;10.26;61.00977;916.8267;;;;
2021/02/07 09:49:22;;;;;;;7;2;;;;;;;10.1;62.2207;917.0247;;;;
2021/02/07 09:51:50;;;;;;;2.7;1.6;;;;;;;10.47;61.00488;917.0787;;;;
2021/02/07 09:54:15;;;;;;;4.5;1.9;;;;;;;10.54;61.55176;917.1542;;;;
2021/02/07 09:56:43;;;;;;;8.6;2.7;;;;;;;10.53;61.49512;917.1136;;;;
2021/02/07 09:59:08;;;;;;;3.6;1.3;;;;;;;11.03;60.14648;917.0111;;;;
2021/02/07 10:01:36;;;;;;;6.2;1.7;;;;;;;11.52;58.27148;916.9445;;;;
2021/02/07 10:04:01;;;;;;;6.9;2.6;;;;;;;11.37;58.35352;916.8307;;;;
2021/02/07 10:06:28;;;;;;;3.7;2.1;;;;;;;10.63;60.53809;916.8806;;;;
2021/02/07 10:08:53;;;;;;;2.3;1.6;;;;;;;11.16;59.26367;916.9111;;;;
2021/02/07 10:11:21;;;;;;;4.2;2.2;;;;;;;11.74;58.01465;916.8834;;;;
2021/02/07 10:13:46;;;;;;;3.3;1.8;;;;;;;12.43;55.60645;916.933;;;;
2021/02/07 10:16:13;;;;;;;5.9;2.1;;;;;;;11.81;56.94629;916.9583;;;;
2021/02/07 10:18:38;;;;;;;9.8;1.6;;;;;;;11.96;56.7832;916.986;;;;
2021/02/07 10:21:07;;;;;;;6.7;1.9;;;;;;;11.96;56.53125;916.9094;;;;
2021/02/07 10:23:32;;;;;;;9.9;2.2;;;;;;;11.76;57.16992;916.9721;;;;
2021/02/07 10:25:57;;;;;;;3.2;1.8;;;;;;;11.76;57.00781;916.8718;;;;
2021/02/07 10:28:22;;;;;;;3.2;1.9;;;;;;;11.6;57.18262;916.9789;;;;
2021/02/07 10:30:49;;;;;;;6.6;2;;;;;;;11.33;58.02734;916.9639;;;;
2021/02/07 10:33:14;;;;;;;4.1;1.6;;;;;;;11.01;58.43066;916.8862;;;;
2021/02/07 10:35:40;;;;;;;8.1;1.6;;;;;;;10.47;60.02441;916.8503;;;;
2021/02/07 10:38:05;;;;;;;6.1;1.7;;;;;;;10.01;61.68262;916.8531;;;;
2021/02/07 10:40:33;;;;;;;5.5;2.8;;;;;;;9.88;62.3584;916.7742;;;;
2021/02/07 10:42:58;;;;;;;4.4;1.9;;;;;;;9.75;62.53418;916.6624;;;;
2021/02/07 10:45:24;;;;;;;6.5;2.2;;;;;;;9.49;63.03125;916.5288;;;;
2021/02/07 10:47:48;;;;;;;3.5;1.9;;;;;;;9.45;63.4834;916.4916;;;;
2021/02/07 10:50:17;;;;;;;7.8;2.3;;;;;;;9.44;63.56055;916.4266;;;;
2021/02/07 10:52:43;;;;;;;3.1;1.3;;;;;;;9.66;63.05664;916.6239;;;;
2021/02/07 10:55:12;;;;;;;10.6;2.8;;;;;;;10.04;62.39453;916.6514;;;;
2021/02/07 10:57:42;;;;;;;3.8;2;;;;;;;10.69;61.08301;916.5466;;;;
2021/02/07 11:00:06;;;;;;;4.5;2.4;;;;;;;11.11;59.98828;916.4672;;;;
2021/02/07 11:02:31;;;;;;;10.2;3.1;;;;;;;11.53;58.71777;916.4025;;;;
2021/02/07 11:04:57;;;;;;;2.7;1.5;;;;;;;11.49;58.53027;916.2706;;;;
2021/02/07 11:07:22;;;;;;;3.7;2.1;;;;;;;11;59.64063;916.1979;;;;
2021/02/07 11:09:48;;;;;;;3.8;1.8;;;;;;;11.34;58.97949;916.1383;;;;
2021/02/07 11:12:13;;;;;;;5.8;2.5;;;;;;;11.13;59.05371;916.2078;;;;
2021/02/07 11:14:40;;;;;;;10.1;2.7;;;;;;;11.17;59.20605;916.1853;;;;
2021/02/07 11:17:08;;;;;;;3.3;1.9;;;;;;;11.14;59.48828;916.1192;;;;
2021/02/07 11:19:38;;;;;;;8.5;2.4;;;;;;;11.35;59.3125;916.0153;;;;
2021/02/07 11:22:03;;;;;;;9;2.2;;;;;;;11.08;60.02832;915.9911;;;;
2021/02/07 11:24:32;;;;;;;3.9;1.8;;;;;;;10.65;61.52441;915.9268;;;;
2021/02/07 11:26:57;;;;;;;15.4;3.5;;;;;;;10.58;61.96973;915.9564;;;;
2021/02/07 11:29:26;;;;;;;7.9;2.5;;;;;;;10.61;61.98438;915.8067;;;;
2021/02/07 11:31:51;;;;;;;4.3;1.8;;;;;;;10.78;61.60938;915.7626;;;;
2021/02/07 11:34:21;;;;;;;2.3;1.7;;;;;;;10.58;61.87793;915.6786;;;;
2021/02/07 11:36:46;;;;;;;6.5;2.4;;;;;;;10.77;61.81348;915.6514;;;;
2021/02/07 11:39:15;;;;;;;3.1;2.1;;;;;;;11.1;60.7627;915.6911;;;;
2021/02/07 11:41:40;;;;;;;6.3;2.1;;;;;;;11.12;60.53809;915.6682;;;;
2021/02/07 11:44:11;;;;;;;10.4;2.4;;;;;;;11.26;60.14551;915.6613;;;;
2021/02/07 11:46:41;;;;;;;3.3;1.8;;;;;;;11.02;59.46094;915.605;;;;
2021/02/07 11:49:11;;;;;;;5.9;1.4;;;;;;;11.11;59.51953;915.6501;;;;
2021/02/07 11:51:36;;;;;;;2.5;1.5;;;;;;;10.76;60.93262;915.7717;;;;
2021/02/07 11:54:03;;;;;;;5;2.1;;;;;;;10.68;61.52637;915.783;;;;
2021/02/07 11:56:28;;;;;;;2.2;1.5;;;;;;;10.98;60.89453;915.8934;;;;
2021/02/07 11:58:55;;;;;;;3.2;1.3;;;;;;;10.62;62.10156;915.9205;;;;
2021/02/07 12:01:20;;;;;;;3.4;2.3;;;;;;;10.45;62.47656;915.9344;;;;
2021/02/07 12:03:48;;;;;;;3.7;2.4;;;;;;;10.12;64.6084;915.9077;;;;
2021/02/07 12:06:13;;;;;;;5.5;2.3;;;;;;;10.38;64.37207;915.9001;;;;
2021/02/07 12:08:40;;;;;;;4.3;2.3;;;;;;;10.64;63.49707;915.7512;;;;
2021/02/07 12:11:05;;;;;;;7.8;2.8;;;;;;;10.83;62.77148;915.6715;;;;
2021/02/07 12:13:32;;;;;;;2.6;2;;;;;;;10.79;63.13184;915.7327;;;;
2021/02/07 12:15:57;;;;;;;4;2.1;;;;;;;10.73;63.43066;915.7075;;;;
2021/02/07 12:18:24;;;;;;;4.5;1.9;;;;;;;10.5;63.7959;915.6116;;;;
2021/02/07 12:20:49;;;;;;;3.3;1.9;;;;;;;10.68;63.87988;915.4988;;;;
2021/02/07 12:23:16;;;;;;;9.9;3;;;;;;;10.52;64.49512;915.5379;;;;
2021/02/07 12:25:41;;;;;;;6.5;2.5;;;;;;;10.48;64.22656;915.5986;;;;
2021/02/07 12:28:09;;;;;;;7.1;2.6;;;;;;;10.49;64.35352;915.6683;;;;
2021/02/07 12:30:34;;;;;;;3.7;2.3;;;;;;;9.99;65.85254;915.6191;;;;
2021/02/07 12:33:01;;;;;;;5.8;2.5;;;;;;;9.64;66.5752;915.6058;;;;
2021/02/07 12:35:26;;;;;;;8.4;2.5;;;;;;;9.87;66.79199;915.6753;;;;
2021/02/07 12:37:53;;;;;;;4;2.2;;;;;;;9.78;67.31543;915.6763;;;;
2021/02/07 12:40:18;;;;;;;3.4;2.2;;;;;;;9.75;67.33203;915.685;;;;
2021/02/07 12:42:46;;;;;;;4.4;2.7;;;;;;;9.61;68.49609;915.6047;;;;
2021/02/07 12:45:11;;;;;;;16.9;2.6;;;;;;;9.69;68.20117;915.5314;;;;
2021/02/07 12:47:39;;;;;;;6.7;2.8;;;;;;;9.63;68.32813;915.4352;;;;
2021/02/07 12:50:04;;;;;;;14.6;2.7;;;;;;;9.64;69.13867;915.3842;;;;
2021/02/07 12:52:30;;;;;;;4.7;2.3;;;;;;;9.68;68.92773;915.3713;;;;
2021/02/07 12:54:59;;;;;;;7.9;3.2;;;;;;;9.65;69.12891;915.2336;;;;
2021/02/07 12:57:28;;;;;;;4.3;2.1;;;;;;;9.79;68.92383;915.1819;;;;
2021/02/07 12:59:58;;;;;;;7.4;2.9;;;;;;;9.7;69.0918;915.0831;;;;
2021/02/07 13:02:25;;;;;;;6;2.9;;;;;;;9.51;69.57422;914.9453;;;;
2021/02/07 13:04:50;;;;;;;2.8;2;;;;;;;9.56;70.11816;914.9059;;;;
2021/02/07 13:07:18;;;;;;;6.2;2.7;;;;;;;9.75;69.60059;914.9119;;;;
2021/02/07 13:09:43;;;;;;;7.4;3.1;;;;;;;9.75;69.67969;915.0708;;;;
2021/02/07 13:12:11;;;;;;;6.2;3.1;;;;;;;10.02;68.99414;915.0628;;;;
2021/02/07 13:14:36;;;;;;;2.7;2;;;;;;;9.88;69.32422;915.2061;;;;
2021/02/07 13:17:03;;;;;;;3;2.3;;;;;;;9.77;69.85352;915.389;;;;
2021/02/07 13:19:28;;;;;;;6;2.7;;;;;;;9.68;70.36328;915.3324;;;;
2021/02/07 13:21:56;;;;;;;9;2.7;;;;;;;9.33;71.88867;915.2734;;;;
2021/02/07 13:24:21;;;;;;;5.7;2.2;;;;;;;9.24;71.85254;915.296;;;;
2021/02/07 13:26:48;;;;;;;4.9;2.8;;;;;;;9.56;71.37109;915.3024;;;;
2021/02/07 13:29:14;;;;;;;4.5;2.9;;;;;;;9.35;72.24609;915.1481;;;;
2021/02/07 13:31:41;;;;;;;5.9;3.1;;;;;;;9.47;71.71875;914.9892;;;;
2021/02/07 13:34:06;;;;;;;6.4;3;;;;;;;9.43;72.04297;914.9551;;;;
2021/02/07 13:36:33;;;;;;;2.8;2.2;;;;;;;9.63;71.81445;914.8879;;;;
2021/02/07 13:38:58;;;;;;;2.7;2.1;;;;;;;10.01;69.99707;914.7831;;;;
2021/02/07 13:41:27;;;;;;;4.2;2.5;;;;;;;10.26;68.42773;914.7779;;;;
2021/02/07 13:43:52;;;;;;;6.2;2.4;;;;;;;10.37;68.30859;914.7009;;;;
2021/02/07 13:46:20;;;;;;;4.5;2.3;;;;;;;10.29;68.31641;914.8647;;;;
2021/02/07 13:48:45;;;;;;;5.3;2.2;;;;;;;10.15;69.10645;914.8758;;;;
2021/02/07 13:51:12;;;;;;;4.8;2.6;;;;;;;9.99;69.70996;914.7103;;;;
2021/02/07 13:53:37;;;;;;;5.5;2.6;;;;;;;9.88;70.27148;914.8467;;;;
2021/02/07 13:56:06;;;;;;;10.6;3.3;;;;;;;9.96;70.21484;915.0076;;;;
2021/02/07 13:58:37;;;;;;;13.7;2.2;;;;;;;9.69;70.90234;915.0072;;;;
2021/02/07 14:01:03;;;;;;;14.1;2.4;;;;;;;9.44;71.72559;914.9954;;;;
2021/02/07 14:03:30;;;;;;;5.4;3;;;;;;;9.51;72.29492;914.8859;;;;
2021/02/07 14:05:55;;;;;;;6.5;2.5;;;;;;;10.49;69.61719;914.8759;;;;
2021/02/07 14:08:22;;;;;;;6.1;2.4;;;;;;;11.48;65.09668;914.6945;;;;
2021/02/07 14:10:47;;;;;;;2.7;2;;;;;;;11.52;63.84473;914.5602;;;;
2021/02/07 14:13:17;;;;;;;4.3;3;;;;;;;11.52;63.99316;914.6119;;;;
2021/02/07 14:15:42;;;;;;;4.3;2.5;;;;;;;10.78;65.79102;914.5353;;;;
2021/02/07 14:18:10;;;;;;;6.4;2.2;;;;;;;10.3;67.6709;914.7775;;;;
2021/02/07 14:20:36;;;;;;;2.3;1.7;;;;;;;9.8;68.74316;914.8406;;;;
2021/02/07 14:23:00;;;;;;;5.1;2.2;;;;;;;9.38;71.5918;914.8329;;;;
2021/02/07 14:25:25;;;;;;;12.7;2.5;;;;;;;9.36;72.20215;914.8159;;;;
2021/02/07 14:27:50;;;;;;;5.8;2.8;;;;;;;9.19;72.33105;914.6595;;;;
2021/02/07 14:30:15;;;;;;;3.3;2.3;;;;;;;8.92;73.18555;914.6838;;;;
2021/02/07 14:32:41;;;;;;;4.9;2.6;;;;;;;8.89;74.11426;914.6398;;;;
2021/02/07 14:35:06;;;;;;;6.3;3.1;;;;;;;9.08;73.83984;914.551;;;;
2021/02/07 14:37:39;;;;;;;11.4;2.9;;;;;;;9.14;73.75781;914.5552;;;;
2021/02/07 14:40:03;;;;;;;4.8;2.5;;;;;;;9.08;73.82813;914.5413;;;;
2021/02/07 14:42:30;;;;;;;5;2.7;;;;;;;8.77;75.04883;914.5336;;;;
2021/02/07 14:44:54;;;;;;;10.4;2.8;;;;;;;8.68;75.44141;914.4041;;;;
2021/02/07 14:47:19;;;;;;;7.6;3.5;;;;;;;8.5;76.21582;914.4894;;;;